createdAt,value
2022-11-12T00:02:43.098Z,6.57
2022-11-12T00:05:46.804Z,6.48
2022-11-12T00:08:48.457Z,6.66
2022-11-12T00:11:50.026Z,6.87
2022-11-12T00:14:51.496Z,7.07
2022-11-12T00:17:53.064Z,7.13
2022-11-12T00:20:56.016Z,7.16
2022-11-12T00:23:57.547Z,7.11
2022-11-12T00:26:59.116Z,7.04
2022-11-12T00:30:00.775Z,6.90
2022-11-12T00:33:05.334Z,6.79
2022-11-12T00:36:08.984Z,6.71
2022-11-12T00:39:10.475Z,6.61
2022-11-12T00:42:11.999Z,6.51
2022-11-12T00:45:13.549Z,6.46
2022-11-12T00:48:15.140Z,6.55
2022-11-12T00:51:18.357Z,6.74
2022-11-12T00:54:19.946Z,6.79
2022-11-12T00:57:21.411Z,6.72
2022-11-12T01:00:23.142Z,6.69
2022-11-12T01:03:27.645Z,6.59
2022-11-12T01:06:30.853Z,6.53
2022-11-12T01:09:32.286Z,6.45
2022-11-12T01:12:33.906Z,6.39
2022-11-12T01:15:39.969Z,6.35
2022-11-12T01:18:41.679Z,6.29
2022-11-12T01:21:45.044Z,6.28
2022-11-12T01:24:46.557Z,6.27
2022-11-12T01:27:48.212Z,6.28
2022-11-12T01:30:51.989Z,6.23
2022-11-12T01:33:54.478Z,6.23
2022-11-12T01:36:57.470Z,6.24
2022-11-12T01:39:58.990Z,6.27
2022-11-12T01:43:00.525Z,6.24
2022-11-12T01:46:03.267Z,6.24
2022-11-12T01:49:06.478Z,6.26
2022-11-12T01:52:16.129Z,6.28
2022-11-12T01:55:20.056Z,6.23
2022-11-12T01:58:24.234Z,6.21
2022-11-12T02:01:26.283Z,6.17
2022-11-12T02:04:28.338Z,6.17
2022-11-12T02:07:31.772Z,6.18
2022-11-12T02:10:34.240Z,6.20
2022-11-12T02:13:54.423Z,6.09
2022-11-12T02:16:56.008Z,6.01
2022-11-12T02:19:58.764Z,5.95
2022-11-12T02:23:01.869Z,5.87
2022-11-12T02:26:03.605Z,5.86
2022-11-12T02:29:05.484Z,5.78
2022-11-12T02:32:07.355Z,5.78
2022-11-12T02:35:09.167Z,5.84
2022-11-12T02:38:12.105Z,5.82
2022-11-12T02:41:13.768Z,5.81
2022-11-12T02:44:15.266Z,5.78
2022-11-12T02:47:17.017Z,5.65
2022-11-12T02:50:18.610Z,5.59
2022-11-12T02:53:21.497Z,5.58
2022-11-12T02:56:23.013Z,5.55
2022-11-12T02:59:24.946Z,5.56
2022-11-12T03:02:26.499Z,5.49
2022-11-12T03:05:29.044Z,5.53
2022-11-12T03:08:32.009Z,5.52
2022-11-12T03:11:33.641Z,5.54
2022-11-12T03:14:35.199Z,5.55
2022-11-12T03:17:36.760Z,5.65
2022-11-12T03:20:38.764Z,5.68
2022-11-12T03:23:41.826Z,5.71
2022-11-12T03:26:43.324Z,5.71
2022-11-12T03:29:44.859Z,5.69
2022-11-12T03:32:46.315Z,5.61
2022-11-12T03:35:47.870Z,5.57
2022-11-12T03:38:50.753Z,5.54
2022-11-12T03:41:52.311Z,5.52
2022-11-12T03:44:53.865Z,5.48
2022-11-12T03:47:56.473Z,5.46
2022-11-12T03:50:58.952Z,5.46
2022-11-12T03:54:01.868Z,5.46
2022-11-12T03:57:03.335Z,5.44
2022-11-12T04:00:05.886Z,5.43
2022-11-12T04:03:07.458Z,5.44
2022-11-12T04:06:27.779Z,5.40
2022-11-12T04:09:30.817Z,5.36
2022-11-12T04:12:50.827Z,5.33
2022-11-12T04:16:12.611Z,5.32
2022-11-12T04:19:33.089Z,5.33
2022-11-12T04:22:34.646Z,5.34
2022-11-12T04:25:57.715Z,5.32
2022-11-12T04:29:17.566Z,5.30
2022-11-12T04:32:19.094Z,5.26
2022-11-12T04:35:21.460Z,5.22
2022-11-12T04:38:23.109Z,5.22
2022-11-12T04:41:49.391Z,5.18
2022-11-12T04:45:04.779Z,5.10
2022-11-12T04:48:06.341Z,5.09
2022-11-12T04:51:27.867Z,5.06
2022-11-12T04:54:29.819Z,5.02
2022-11-12T04:57:32.698Z,5.00
2022-11-12T05:00:34.274Z,4.93
2022-11-12T05:03:35.979Z,4.85
2022-11-12T05:06:52.698Z,4.79
2022-11-12T05:09:54.189Z,4.76
2022-11-12T05:12:57.467Z,4.73
2022-11-12T05:15:58.888Z,4.71
2022-11-12T05:19:00.498Z,4.66
2022-11-12T05:22:17.469Z,4.67
2022-11-12T05:25:28.866Z,4.64
2022-11-12T05:28:31.789Z,4.62
2022-11-12T05:31:33.335Z,4.61
2022-11-12T05:34:35.117Z,4.60
2022-11-12T05:37:36.716Z,4.65
2022-11-12T05:40:38.256Z,4.79
2022-11-12T05:43:41.113Z,5.00
2022-11-12T05:46:42.625Z,5.15
2022-11-12T05:49:44.082Z,5.27
2022-11-12T05:52:45.861Z,5.34
2022-11-12T05:55:47.412Z,5.35
2022-11-12T05:58:50.320Z,5.30
2022-11-12T06:01:52.003Z,5.22
2022-11-12T06:04:53.678Z,5.15
2022-11-12T06:07:55.182Z,5.24
2022-11-12T06:10:56.690Z,5.23
2022-11-12T06:13:59.532Z,5.19
2022-11-12T06:17:01.115Z,5.20
2022-11-12T06:20:02.668Z,5.20
2022-11-12T06:23:04.600Z,5.25
2022-11-12T06:26:06.168Z,5.30
2022-11-12T06:29:09.247Z,5.33
2022-11-12T06:32:11.238Z,5.28
2022-11-12T06:35:13.040Z,5.26
2022-11-12T06:38:14.561Z,5.23
2022-11-12T06:41:16.166Z,5.20
2022-11-12T06:44:22.339Z,5.23
2022-11-12T06:47:24.154Z,5.24
2022-11-12T06:50:25.889Z,5.24
2022-11-12T06:53:27.436Z,5.23
2022-11-12T06:56:29.100Z,5.21
2022-11-12T06:59:31.987Z,5.21
2022-11-12T07:02:33.509Z,5.14
2022-11-12T07:05:36.091Z,5.06
2022-11-12T07:08:38.368Z,5.09
2022-11-12T07:11:40.034Z,5.12
2022-11-12T07:14:43.004Z,5.10
2022-11-12T07:17:45.551Z,5.13
2022-11-12T07:20:47.171Z,5.17
2022-11-12T07:23:49.044Z,5.22
2022-11-12T07:26:50.513Z,5.25
2022-11-12T07:29:53.392Z,5.30
2022-11-12T07:32:57.526Z,5.33
2022-11-12T07:35:59.972Z,5.30
2022-11-12T07:39:01.538Z,5.34
2022-11-12T07:42:03.215Z,5.35
2022-11-12T07:45:07.103Z,5.42
2022-11-12T07:48:08.585Z,5.48
2022-11-12T07:51:12.841Z,5.49
2022-11-12T07:54:14.656Z,5.53
2022-11-12T07:57:16.262Z,5.55
2022-11-12T08:00:19.585Z,5.58
2022-11-12T08:03:21.191Z,5.64
2022-11-12T08:06:22.638Z,5.67
2022-11-12T08:09:24.375Z,5.69
2022-11-12T08:12:26.231Z,5.73
2022-11-12T08:15:32.449Z,5.80
2022-11-12T08:18:34.269Z,5.89
2022-11-12T08:21:36.424Z,5.97
2022-11-12T08:24:37.962Z,6.01
2022-11-12T08:27:39.485Z,6.06
2022-11-12T08:30:42.411Z,6.14
2022-11-12T08:33:44.089Z,6.22
2022-11-12T08:36:45.592Z,6.29
2022-11-12T08:39:47.168Z,6.32
2022-11-12T08:42:48.768Z,6.33
2022-11-12T08:45:51.691Z,6.37
2022-11-12T08:48:53.218Z,6.46
2022-11-12T08:51:54.884Z,6.50
2022-11-12T08:54:56.681Z,6.50
2022-11-12T08:58:02.022Z,6.51
2022-11-12T09:01:07.099Z,6.51
2022-11-12T09:04:08.885Z,6.54
2022-11-12T09:07:28.607Z,6.63
2022-11-12T09:10:32.975Z,6.68
2022-11-12T09:13:34.626Z,6.72
2022-11-12T09:16:37.840Z,6.79
2022-11-12T09:19:42.893Z,6.85
2022-11-12T09:22:44.952Z,6.87
2022-11-12T09:25:46.425Z,6.93
2022-11-12T09:28:48.194Z,7.01
2022-11-12T09:31:51.353Z,7.04
2022-11-12T09:34:52.972Z,7.11
2022-11-12T09:37:54.593Z,7.17
2022-11-12T09:41:14.582Z,7.25
2022-11-12T09:44:18.781Z,7.38
2022-11-12T09:47:26.712Z,7.47
2022-11-12T09:50:30.482Z,7.60
2022-11-12T09:53:34.533Z,7.69
2022-11-12T09:56:38.344Z,7.79
2022-11-12T09:59:42.510Z,7.76
2022-11-12T10:02:52.553Z,7.91
2022-11-12T10:05:58.440Z,7.94
2022-11-12T10:09:10.659Z,7.97
2022-11-12T10:12:33.627Z,8.04
2022-11-12T10:15:55.940Z,8.11
2022-11-12T10:19:06.402Z,8.18
2022-11-12T10:22:18.223Z,8.20
2022-11-12T10:25:20.399Z,8.26
2022-11-12T10:28:27.162Z,8.33
2022-11-12T10:31:29.560Z,8.40
2022-11-12T10:34:36.026Z,8.50
2022-11-12T10:37:41.487Z,8.59
2022-11-12T10:40:43.120Z,8.67
2022-11-12T10:43:52.851Z,8.73
2022-11-12T10:47:14.909Z,8.77
2022-11-12T10:50:22.555Z,8.83
2022-11-12T10:53:32.755Z,8.91
2022-11-12T10:56:34.474Z,8.98
2022-11-12T10:59:35.987Z,9.07
2022-11-12T11:02:37.662Z,9.16
2022-11-12T11:05:50.403Z,9.24
2022-11-12T11:08:52.946Z,9.31
2022-11-12T11:11:56.830Z,9.35
2022-11-12T11:15:07.605Z,9.41
2022-11-12T11:18:10.769Z,9.59
2022-11-12T11:21:19.039Z,9.68
2022-11-12T11:24:36.687Z,9.80
2022-11-12T11:27:45.199Z,10.00
2022-11-12T11:30:52.064Z,10.05
2022-11-12T11:33:56.589Z,10.04
2022-11-12T11:37:05.724Z,10.03
2022-11-12T11:40:14.988Z,10.00
2022-11-12T11:43:27.200Z,10.00
2022-11-12T11:46:41.301Z,9.99
2022-11-12T11:49:51.058Z,10.01
2022-11-12T11:53:01.216Z,10.03
2022-11-12T11:56:05.166Z,10.04
2022-11-12T11:59:17.011Z,10.08
2022-11-12T12:02:33.215Z,10.14
2022-11-12T12:05:40.627Z,10.18
2022-11-12T12:08:58.248Z,10.18
2022-11-12T12:12:04.066Z,10.23
2022-11-12T12:15:19.117Z,10.27
2022-11-12T12:18:26.448Z,10.31
2022-11-12T12:21:32.294Z,10.36
2022-11-12T12:24:42.375Z,10.41
2022-11-12T12:27:50.080Z,10.41
2022-11-12T12:30:53.704Z,10.42
2022-11-12T12:33:58.527Z,10.45
2022-11-12T12:37:03.663Z,10.47
2022-11-12T12:40:13.395Z,10.48
2022-11-12T12:43:17.651Z,10.51
2022-11-12T12:46:21.523Z,10.51
2022-11-12T12:49:28.676Z,10.52
2022-11-12T12:52:31.148Z,10.54
2022-11-12T12:55:39.333Z,10.59
2022-11-12T12:58:43.358Z,10.62
2022-11-12T13:02:05.823Z,10.66
2022-11-12T13:05:22.581Z,10.65
2022-11-12T13:08:26.234Z,10.66
2022-11-12T13:12:06.912Z,10.68
2022-11-12T13:15:11.735Z,10.72
2022-11-12T13:18:35.015Z,10.73
2022-11-12T13:21:36.736Z,10.73
2022-11-12T13:24:57.123Z,10.73
2022-11-12T13:28:09.527Z,10.77
2022-11-12T13:31:26.856Z,10.79
2022-11-12T13:34:31.574Z,10.79
2022-11-12T13:37:33.464Z,10.82
2022-11-12T13:40:38.496Z,10.87
2022-11-12T13:43:42.734Z,10.82
2022-11-12T13:46:45.938Z,10.78
2022-11-12T13:49:48.195Z,10.73
2022-11-12T13:52:50.048Z,10.70
2022-11-12T13:55:52.716Z,10.65
2022-11-12T13:58:54.511Z,10.62
2022-11-12T14:02:03.806Z,10.60
2022-11-12T14:05:13.051Z,10.55
2022-11-12T14:08:24.620Z,10.53
2022-11-12T14:11:36.914Z,10.51
2022-11-12T14:14:47.241Z,10.46
2022-11-12T14:17:56.830Z,10.42
2022-11-12T14:20:58.491Z,10.38
2022-11-12T14:24:02.076Z,10.32
2022-11-12T14:27:04.229Z,10.28
2022-11-12T14:30:11.594Z,10.22
2022-11-12T14:33:19.617Z,10.17
2022-11-12T14:36:22.071Z,10.13
2022-11-12T14:39:24.538Z,10.07
2022-11-12T14:42:35.641Z,10.01
2022-11-12T14:45:37.240Z,10.00
2022-11-12T14:48:46.296Z,9.97
2022-11-12T14:51:49.166Z,9.91
2022-11-12T14:54:52.148Z,9.86
2022-11-12T14:57:58.808Z,9.85
2022-11-12T15:01:47.768Z,9.87
2022-11-12T15:04:43.463Z,9.83
2022-11-12T15:07:52.843Z,9.81
2022-11-12T15:10:54.901Z,9.75
2022-11-12T15:13:57.049Z,9.69
2022-11-12T15:17:00.779Z,9.66
2022-11-12T15:20:05.001Z,9.59
2022-11-12T15:23:14.533Z,9.53
2022-11-12T15:26:24.031Z,9.54
2022-11-12T15:29:30.093Z,9.51
2022-11-12T15:32:32.471Z,9.40
2022-11-12T15:35:37.275Z,9.34
2022-11-12T15:38:38.891Z,9.25
2022-11-12T15:41:40.492Z,9.22
2022-11-12T15:44:42.355Z,9.20
2022-11-12T15:47:43.867Z,9.17
2022-11-12T15:50:47.055Z,9.15
2022-11-12T15:53:48.615Z,9.12
2022-11-12T15:56:50.668Z,9.04
2022-11-12T15:59:54.935Z,9.06
2022-11-12T16:02:59.306Z,9.05
2022-11-12T16:06:08.608Z,9.06
2022-11-12T16:09:11.038Z,9.01
2022-11-12T16:12:13.466Z,8.94
2022-11-12T16:15:15.557Z,8.89
2022-11-12T16:18:17.078Z,8.87
2022-11-12T16:21:21.090Z,8.83
2022-11-12T16:24:22.912Z,8.81
2022-11-12T16:27:25.579Z,8.74
2022-11-12T16:30:28.901Z,8.71
2022-11-12T16:33:30.891Z,8.62
2022-11-12T16:36:33.990Z,8.48
2022-11-12T16:39:35.639Z,8.43
2022-11-12T16:42:37.111Z,8.38
2022-11-12T16:45:39.939Z,8.33
2022-11-12T16:48:41.669Z,8.30
2022-11-12T16:51:44.725Z,8.26
2022-11-12T16:54:46.250Z,8.12
2022-11-12T16:57:47.754Z,8.07
2022-11-12T17:00:52.700Z,8.05
2022-11-12T17:03:57.991Z,8.05
2022-11-12T17:07:01.011Z,7.96
2022-11-12T17:10:02.635Z,7.89
2022-11-12T17:13:04.102Z,7.95
2022-11-12T17:16:06.620Z,7.84
2022-11-12T17:19:10.331Z,7.87
2022-11-12T17:22:26.949Z,7.94
2022-11-12T17:26:02.486Z,7.83
2022-11-12T17:29:08.091Z,7.82
2022-11-12T17:32:10.828Z,7.79
2022-11-12T17:35:15.251Z,7.66
2022-11-12T17:38:18.235Z,7.64
2022-11-12T17:41:19.753Z,7.56
2022-11-12T17:44:21.271Z,7.48
2022-11-12T17:47:22.955Z,7.48
2022-11-12T17:50:25.382Z,7.47
2022-11-12T17:53:29.741Z,7.70
2022-11-12T17:56:36.958Z,7.90
2022-11-12T17:59:38.769Z,8.04
2022-11-12T18:02:40.320Z,8.18
2022-11-12T18:05:41.860Z,8.22
2022-11-12T18:08:44.970Z,8.12
2022-11-12T18:11:47.577Z,7.92
2022-11-12T18:14:49.108Z,7.78
2022-11-12T18:17:52.377Z,7.66
2022-11-12T18:20:54.113Z,7.63
2022-11-12T18:23:57.057Z,7.57
2022-11-12T18:26:58.564Z,7.42
2022-11-12T18:30:00.571Z,7.33
2022-11-12T18:33:02.060Z,7.24
2022-11-12T18:36:04.238Z,7.28
2022-11-12T18:39:07.648Z,7.23
2022-11-12T18:42:09.291Z,7.20
2022-11-12T18:45:11.002Z,7.11
2022-11-12T18:48:12.753Z,7.11
2022-11-12T18:51:15.304Z,7.20
2022-11-12T18:54:18.236Z,7.37
2022-11-12T18:57:19.902Z,7.44
2022-11-12T19:00:21.594Z,7.51
2022-11-12T19:03:23.175Z,7.54
2022-11-12T19:06:27.826Z,7.53
2022-11-12T19:09:30.873Z,7.52
2022-11-12T19:12:32.351Z,7.54
2022-11-12T19:15:34.293Z,7.53
2022-11-12T19:18:35.779Z,7.50
2022-11-12T19:21:37.395Z,7.51
2022-11-12T19:24:40.230Z,7.42
2022-11-12T19:27:42.570Z,7.31
2022-11-12T19:30:44.027Z,7.32
2022-11-12T19:33:46.719Z,7.41
2022-11-12T19:36:48.448Z,7.44
2022-11-12T19:39:56.187Z,7.40
2022-11-12T19:42:57.872Z,7.41
2022-11-12T19:46:07.476Z,7.43
2022-11-12T19:49:12.033Z,7.46
2022-11-12T19:52:13.500Z,7.46
2022-11-12T19:55:16.511Z,7.45
2022-11-12T19:58:18.209Z,7.32
2022-11-12T20:01:19.985Z,7.27
2022-11-12T20:04:24.199Z,7.26
2022-11-12T20:07:26.087Z,7.32
2022-11-12T20:10:28.901Z,7.47
2022-11-12T20:13:30.397Z,7.50
2022-11-12T20:16:33.170Z,7.51
2022-11-12T20:19:35.561Z,7.57
2022-11-12T20:22:37.034Z,7.57
2022-11-12T20:25:39.913Z,7.59
2022-11-12T20:28:42.426Z,7.59
2022-11-12T20:31:43.914Z,7.59
2022-11-12T20:34:45.479Z,7.59
2022-11-12T20:37:47.228Z,7.55
2022-11-12T20:40:56.392Z,7.53
2022-11-12T20:44:04.441Z,7.53
2022-11-12T20:47:05.874Z,7.56
2022-11-12T20:50:07.672Z,7.58
2022-11-12T20:53:09.471Z,7.59
2022-11-12T20:56:13.399Z,7.60
2022-11-12T20:59:15.102Z,7.57
2022-11-12T21:02:16.676Z,7.56
2022-11-12T21:05:18.525Z,7.56
2022-11-12T21:08:23.862Z,7.56
2022-11-12T21:11:27.142Z,7.59
2022-11-12T21:14:28.660Z,7.61
2022-11-12T21:17:30.111Z,7.61
2022-11-12T21:20:31.584Z,7.62
2022-11-12T21:23:34.202Z,7.61
2022-11-12T21:26:40.092Z,7.59
2022-11-12T21:29:41.664Z,7.49
2022-11-12T21:32:43.095Z,7.36
2022-11-12T21:35:51.164Z,7.46
2022-11-12T21:38:52.668Z,7.50
2022-11-12T21:41:55.539Z,7.55
2022-11-12T21:44:57.099Z,7.61
2022-11-12T21:47:59.488Z,7.68
2022-11-12T21:51:02.440Z,7.73
2022-11-12T21:54:05.249Z,7.76
2022-11-12T21:57:08.286Z,7.74
2022-11-12T22:00:39.572Z,7.72
2022-11-12T22:03:31.984Z,7.66
2022-11-12T22:06:36.174Z,7.61
2022-11-12T22:09:38.027Z,7.49
2022-11-12T22:12:42.968Z,7.42
2022-11-12T22:15:55.167Z,7.43
2022-11-12T22:18:58.381Z,7.39
2022-11-12T22:22:00.630Z,7.37
2022-11-12T22:25:02.400Z,7.34
2022-11-12T22:28:05.288Z,7.34
2022-11-12T22:31:08.227Z,7.37
2022-11-12T22:34:09.682Z,7.38
2022-11-12T22:37:11.875Z,7.31
2022-11-12T22:40:13.830Z,7.30
2022-11-12T22:43:16.662Z,7.26
2022-11-12T22:46:18.915Z,7.24
2022-11-12T22:49:20.512Z,7.21
2022-11-12T22:52:21.933Z,7.19
2022-11-12T22:55:23.485Z,7.18
2022-11-12T22:58:26.915Z,7.26
2022-11-12T23:01:30.371Z,7.38
2022-11-12T23:04:31.883Z,7.39
2022-11-12T23:07:33.391Z,7.38
2022-11-12T23:10:34.993Z,7.33
2022-11-12T23:13:38.994Z,7.25
2022-11-12T23:16:40.676Z,7.23
2022-11-12T23:19:42.101Z,7.24
2022-11-12T23:22:43.631Z,7.21
2022-11-12T23:25:45.171Z,7.15
2022-11-12T23:28:49.577Z,7.08
2022-11-12T23:31:51.254Z,7.04
2022-11-12T23:34:52.881Z,6.97
2022-11-12T23:37:54.692Z,6.91
2022-11-12T23:40:56.195Z,6.93
2022-11-12T23:43:59.193Z,6.93
2022-11-12T23:47:01.051Z,6.89
2022-11-12T23:50:03.493Z,6.88
2022-11-12T23:53:04.970Z,6.90
2022-11-12T23:56:07.428Z,6.82
2022-11-12T23:59:10.340Z,6.80
